createdAt,value
2018-02-09T00:02:03.859Z,100985.63
2018-02-09T00:04:30.653Z,100974.16
2018-02-09T00:06:58.027Z,100973.36
2018-02-09T00:09:25.698Z,100978.92
2018-02-09T00:11:52.441Z,100971.83
2018-02-09T00:14:19.260Z,100976.30
2018-02-09T00:16:46.057Z,100975.59
2018-02-09T00:19:12.945Z,100973.16
2018-02-09T00:21:39.719Z,100976.50
2018-02-09T00:24:06.529Z,100969.55
2018-02-09T00:26:33.292Z,100966.28
2018-02-09T00:29:00.028Z,100954.20
2018-02-09T00:31:26.804Z,100961.89
2018-02-09T00:33:54.312Z,100948.44
2018-02-09T00:36:21.138Z,100948.52
2018-02-09T00:38:47.953Z,100957.20
2018-02-09T00:41:14.769Z,100955.70
2018-02-09T00:43:42.321Z,100947.45
2018-02-09T00:46:09.646Z,100948.09
2018-02-09T00:48:36.467Z,100949.91
2018-02-09T00:51:03.271Z,100953.96
2018-02-09T00:53:30.033Z,100946.98
2018-02-09T00:55:56.845Z,100951.52
2018-02-09T00:58:23.623Z,100950.25
2018-02-09T01:00:50.397Z,100947.42
2018-02-09T01:03:17.200Z,100943.47
2018-02-09T01:05:43.961Z,100949.11
2018-02-09T01:08:10.727Z,100950.45
2018-02-09T01:10:37.550Z,100953.02
2018-02-09T01:13:04.364Z,100954.36
2018-02-09T01:15:31.913Z,100953.83
2018-02-09T01:17:58.750Z,100955.84
2018-02-09T01:20:25.523Z,100951.25
2018-02-09T01:22:52.291Z,100947.97
2018-02-09T01:25:19.101Z,100947.55
2018-02-09T01:27:45.889Z,100950.13
2018-02-09T01:30:12.704Z,100943.22
2018-02-09T01:32:39.475Z,100938.39
2018-02-09T01:35:06.275Z,100932.04
2018-02-09T01:37:33.047Z,100927.70
2018-02-09T01:39:59.811Z,100925.09
2018-02-09T01:42:26.588Z,100923.55
2018-02-09T01:44:53.383Z,100926.03
2018-02-09T01:47:20.161Z,100919.38
2018-02-09T01:50:05.757Z,100915.67
2018-02-09T01:52:33.297Z,100913.55
2018-02-09T01:55:00.836Z,100919.75
2018-02-09T01:57:27.634Z,100915.98
2018-02-09T01:59:54.439Z,100915.95
2018-02-09T02:02:21.983Z,100912.35
2018-02-09T02:04:48.774Z,100910.84
2018-02-09T02:07:15.570Z,100905.71
2018-02-09T02:09:42.331Z,100904.02
2018-02-09T02:12:09.120Z,100903.67
2018-02-09T02:14:35.980Z,100914.50
2018-02-09T02:17:02.752Z,100912.83
2018-02-09T02:19:30.267Z,100909.79
2018-02-09T02:21:57.052Z,100905.47
2018-02-09T02:24:23.871Z,100904.17
2018-02-09T02:26:50.629Z,100906.02
2018-02-09T02:29:17.376Z,100902.21
2018-02-09T02:31:45.776Z,100891.19
2018-02-09T02:34:12.546Z,100894.63
2018-02-09T02:36:39.311Z,100892.09
2018-02-09T02:39:06.100Z,100883.08
2018-02-09T02:41:32.875Z,100884.77
2018-02-09T02:43:59.708Z,100877.29
2018-02-09T02:46:26.456Z,100872.53
2018-02-09T02:48:53.221Z,100873.08
2018-02-09T02:51:20.056Z,100873.98
2018-02-09T02:53:46.897Z,100867.52
2018-02-09T02:56:13.735Z,100871.02
2018-02-09T02:58:40.507Z,100863.30
2018-02-09T03:01:07.312Z,100862.59
2018-02-09T03:03:34.143Z,100856.34
2018-02-09T03:06:00.939Z,100852.16
2018-02-09T03:08:27.701Z,100847.99
2018-02-09T03:10:54.571Z,100846.35
2018-02-09T03:13:21.330Z,100842.53
2018-02-09T03:15:48.145Z,100843.83
2018-02-09T03:18:14.913Z,100843.94
2018-02-09T03:20:41.707Z,100839.27
2018-02-09T03:23:08.474Z,100836.31
2018-02-09T03:25:35.257Z,100829.93
2018-02-09T03:28:02.765Z,100824.70
2018-02-09T03:30:29.559Z,100826.87
2018-02-09T03:32:57.075Z,100828.64
2018-02-09T03:35:23.842Z,100827.32
2018-02-09T03:37:50.602Z,100822.30
2018-02-09T03:40:18.139Z,100817.75
2018-02-09T03:42:45.664Z,100813.52
2018-02-09T03:45:12.505Z,100811.33
2018-02-09T03:47:39.258Z,100817.61
2018-02-09T03:50:06.112Z,100817.81
2018-02-09T03:52:32.908Z,100810.40
2018-02-09T03:54:59.669Z,100808.89
2018-02-09T03:57:26.464Z,100807.52
2018-02-09T03:59:53.219Z,100801.81
2018-02-09T04:02:20.012Z,100806.59
2018-02-09T04:04:46.788Z,100791.91
2018-02-09T04:07:14.272Z,100788.53
2018-02-09T04:09:41.036Z,100790.34
2018-02-09T04:12:07.826Z,100791.75
2018-02-09T04:14:34.595Z,100792.37
2018-02-09T04:17:01.344Z,100789.72
2018-02-09T04:19:28.123Z,100787.56
2018-02-09T04:21:54.880Z,100784.92
2018-02-09T04:24:21.659Z,100780.34
2018-02-09T04:26:48.440Z,100782.60
2018-02-09T04:29:15.196Z,100781.72
2018-02-09T04:31:41.974Z,100785.67
2018-02-09T04:34:09.470Z,100784.08
2018-02-09T04:36:36.218Z,100788.99
2018-02-09T04:39:03.128Z,100783.42
2018-02-09T04:41:29.982Z,100780.61
2018-02-09T04:43:56.720Z,100792.74
2018-02-09T04:46:23.470Z,100793.70
2018-02-09T04:48:50.294Z,100790.53
2018-02-09T04:51:17.090Z,100791.15
2018-02-09T04:53:43.872Z,100786.26
2018-02-09T04:56:10.668Z,100783.48
2018-02-09T04:58:38.248Z,100787.59
2018-02-09T05:01:05.017Z,100786.90
2018-02-09T05:03:31.836Z,100775.80
2018-02-09T05:05:59.390Z,100774.89
2018-02-09T05:08:26.146Z,100776.20
2018-02-09T05:10:54.935Z,100768.03
2018-02-09T05:13:21.722Z,100767.12
2018-02-09T05:15:48.574Z,100769.27
2018-02-09T05:18:15.379Z,100766.55
2018-02-09T05:20:42.142Z,100767.01
2018-02-09T05:23:10.661Z,100764.53
2018-02-09T05:25:37.717Z,100760.64
2018-02-09T05:28:04.564Z,100758.73
2018-02-09T05:30:32.132Z,100758.30
2018-02-09T05:32:59.630Z,100762.23
2018-02-09T05:35:26.401Z,100756.58
2018-02-09T05:37:53.156Z,100755.98
2018-02-09T05:40:20.010Z,100749.28
2018-02-09T05:42:46.824Z,100742.45
2018-02-09T05:45:13.585Z,100743.12
2018-02-09T05:47:40.348Z,100735.97
2018-02-09T05:50:07.130Z,100735.85
2018-02-09T05:52:33.878Z,100730.02
2018-02-09T05:55:00.637Z,100726.36
2018-02-09T05:57:27.459Z,100732.30
2018-02-09T05:59:54.205Z,100727.21
2018-02-09T06:02:20.949Z,100728.89
2018-02-09T06:04:47.827Z,100728.17
2018-02-09T06:07:15.368Z,100723.98
2018-02-09T06:09:42.113Z,100720.88
2018-02-09T06:12:08.860Z,100713.98
2018-02-09T06:14:36.354Z,100716.45
2018-02-09T06:17:03.094Z,100719.48
2018-02-09T06:19:29.828Z,100719.63
2018-02-09T06:21:56.604Z,100716.59
2018-02-09T06:24:23.384Z,100719.67
2018-02-09T06:26:50.883Z,100709.80
2018-02-09T06:29:17.643Z,100716.11
2018-02-09T06:31:44.378Z,100716.66
2018-02-09T06:34:11.128Z,100715.87
2018-02-09T06:36:37.874Z,100710.22
2018-02-09T06:39:04.923Z,100716.27
2018-02-09T06:41:31.693Z,100712.40
2018-02-09T06:43:59.206Z,100711.11
2018-02-09T06:46:25.966Z,100714.13
2018-02-09T06:48:52.728Z,100715.42
2018-02-09T06:51:20.267Z,100716.72
2018-02-09T06:53:47.006Z,100704.20
2018-02-09T06:56:13.769Z,100708.52
2018-02-09T06:58:40.485Z,100706.80
2018-02-09T07:01:07.222Z,100703.34
2018-02-09T07:03:33.970Z,100702.08
2018-02-09T07:06:00.724Z,100697.77
2018-02-09T07:08:27.517Z,100694.72
2018-02-09T07:10:54.247Z,100689.96
2018-02-09T07:13:21.008Z,100692.59
2018-02-09T07:15:47.768Z,100691.73
2018-02-09T07:18:14.558Z,100690.00
2018-02-09T07:20:41.321Z,100689.58
2018-02-09T07:23:08.066Z,100684.81
2018-02-09T07:25:34.822Z,100688.27
2018-02-09T07:28:01.555Z,100685.25
2018-02-09T07:30:33.539Z,100691.72
2018-02-09T07:33:00.289Z,100684.37
2018-02-09T07:35:27.074Z,100673.98
2018-02-09T07:37:55.039Z,100675.73
2018-02-09T07:40:23.566Z,100684.83
2018-02-09T07:42:51.005Z,100674.89
2018-02-09T07:45:18.682Z,100677.05
2018-02-09T07:47:46.209Z,100669.31
2018-02-09T07:50:13.292Z,100668.45
2018-02-09T07:52:40.198Z,100675.35
2018-02-09T07:55:07.371Z,100666.72
2018-02-09T07:57:34.656Z,100670.16
2018-02-09T08:00:01.788Z,100666.27
2018-02-09T08:02:28.839Z,100657.22
2018-02-09T08:04:56.410Z,100661.05
2018-02-09T08:07:23.759Z,100656.70
2018-02-09T08:09:56.028Z,100663.16
2018-02-09T08:12:22.941Z,100656.70
2018-02-09T08:14:49.924Z,100651.57
2018-02-09T08:17:17.325Z,100660.58
2018-02-09T08:19:44.556Z,100647.63
2018-02-09T08:22:13.545Z,100647.53
2018-02-09T08:24:40.531Z,100651.05
2018-02-09T08:27:07.476Z,100647.09
2018-02-09T08:29:35.438Z,100649.12
2018-02-09T08:32:04.362Z,100643.59
2018-02-09T08:37:03.626Z,100641.94
2018-02-09T08:39:30.685Z,100636.69
2018-02-09T08:41:57.977Z,100638.08
2018-02-09T08:44:25.002Z,100640.55
2018-02-09T08:46:51.953Z,100631.51
2018-02-09T08:49:24.867Z,100628.50
2018-02-09T08:51:51.740Z,100622.67
2018-02-09T08:54:18.686Z,100626.52
2018-02-09T08:56:45.594Z,100626.03
2018-02-09T08:59:12.601Z,100614.41
2018-02-09T09:01:39.552Z,100617.73
2018-02-09T09:04:07.290Z,100614.73
2018-02-09T09:06:34.195Z,100611.67
2018-02-09T09:09:02.050Z,100609.00
2018-02-09T09:11:29.141Z,100607.67
2018-02-09T09:13:56.060Z,100608.19
2018-02-09T09:16:22.959Z,100600.78
2018-02-09T09:18:50.687Z,100598.49
2018-02-09T09:21:17.595Z,100601.45
2018-02-09T09:23:44.591Z,100603.44
2018-02-09T09:26:11.597Z,100605.54
2018-02-09T09:28:39.346Z,100598.12
2018-02-09T09:31:06.597Z,100601.94
2018-02-09T09:33:33.610Z,100598.27
2018-02-09T09:36:00.665Z,100604.30
2018-02-09T09:38:28.395Z,100603.85
2018-02-09T09:40:56.084Z,100608.59
2018-02-09T09:43:23.800Z,100602.95
2018-02-09T09:45:51.852Z,100597.62
2018-02-09T09:48:21.017Z,100591.08
2018-02-09T09:50:49.025Z,100590.80
2018-02-09T09:53:16.068Z,100585.73
2018-02-09T09:55:43.093Z,100582.58
2018-02-09T09:58:10.422Z,100580.41
2018-02-09T10:00:42.714Z,100585.97
2018-02-09T10:03:09.819Z,100587.39
2018-02-09T10:05:37.171Z,100578.88
2018-02-09T10:08:09.752Z,100582.80
2018-02-09T10:10:43.576Z,100581.50
2018-02-09T22:03:00.076Z,100487.52
2018-02-09T22:05:28.449Z,100482.58
2018-02-09T22:07:56.554Z,100483.95
2018-02-09T22:10:24.504Z,100487.30
2018-02-09T22:12:52.852Z,100484.34
2018-02-09T23:24:23.749Z,100503.67
